sensor_id;sensor_type;location;lat;lon;timestamp;P1;durP1;ratioP1;P2;durP2;ratioP2
15230;SDS011;32569;51.762;8.564;2023-03-05T00:00:39;7.00;;;3.20;;
15230;SDS011;32569;51.762;8.564;2023-03-05T00:03:07;6.50;;;3.10;;
15230;SDS011;32569;51.762;8.564;2023-03-05T00:05:34;7.57;;;3.40;;
15230;SDS011;32569;51.762;8.564;2023-03-05T00:08:02;6.83;;;3.20;;
15230;SDS011;32569;51.762;8.564;2023-03-05T00:10:29;6.10;;;3.03;;
15230;SDS011;32569;51.762;8.564;2023-03-05T00:12:56;6.47;;;3.17;;
15230;SDS011;32569;51.762;8.564;2023-03-05T00:15:22;7.13;;;3.23;;
15230;SDS011;32569;51.762;8.564;2023-03-05T00:17:49;5.40;;;2.87;;
15230;SDS011;32569;51.762;8.564;2023-03-05T00:20:17;12.57;;;3.83;;
15230;SDS011;32569;51.762;8.564;2023-03-05T00:22:47;8.70;;;3.60;;
15230;SDS011;32569;51.762;8.564;2023-03-05T00:25:13;5.27;;;2.70;;
15230;SDS011;32569;51.762;8.564;2023-03-05T00:27:40;8.03;;;3.73;;
15230;SDS011;32569;51.762;8.564;2023-03-05T00:30:07;7.57;;;3.27;;
15230;SDS011;32569;51.762;8.564;2023-03-05T00:32:35;8.67;;;3.23;;
15230;SDS011;32569;51.762;8.564;2023-03-05T00:35:01;8.33;;;3.03;;
15230;SDS011;32569;51.762;8.564;2023-03-05T00:37:29;6.80;;;3.00;;
15230;SDS011;32569;51.762;8.564;2023-03-05T00:39:56;8.07;;;3.27;;
15230;SDS011;32569;51.762;8.564;2023-03-05T00:42:22;7.60;;;3.97;;
15230;SDS011;32569;51.762;8.564;2023-03-05T00:44:49;6.83;;;3.10;;
15230;SDS011;32569;51.762;8.564;2023-03-05T00:47:16;9.57;;;3.30;;
15230;SDS011;32569;51.762;8.564;2023-03-05T00:49:43;10.40;;;3.30;;
15230;SDS011;32569;51.762;8.564;2023-03-05T00:52:09;7.83;;;3.50;;
15230;SDS011;32569;51.762;8.564;2023-03-05T00:54:37;8.93;;;4.70;;
15230;SDS011;32569;51.762;8.564;2023-03-05T00:57:04;8.33;;;3.63;;
15230;SDS011;32569;51.762;8.564;2023-03-05T00:59:31;6.73;;;3.37;;
15230;SDS011;32569;51.762;8.564;2023-03-05T01:01:57;6.40;;;3.10;;
15230;SDS011;32569;51.762;8.564;2023-03-05T01:04:26;6.70;;;3.60;;
15230;SDS011;32569;51.762;8.564;2023-03-05T01:06:52;11.90;;;3.77;;
15230;SDS011;32569;51.762;8.564;2023-03-05T01:09:19;6.63;;;2.83;;
15230;SDS011;32569;51.762;8.564;2023-03-05T01:11:50;6.03;;;3.20;;
15230;SDS011;32569;51.762;8.564;2023-03-05T01:14:20;8.07;;;3.30;;
15230;SDS011;32569;51.762;8.564;2023-03-05T01:16:50;8.97;;;3.30;;
15230;SDS011;32569;51.762;8.564;2023-03-05T01:19:16;6.60;;;3.57;;
15230;SDS011;32569;51.762;8.564;2023-03-05T01:21:43;6.87;;;2.80;;
15230;SDS011;32569;51.762;8.564;2023-03-05T01:24:10;6.07;;;2.97;;
15230;SDS011;32569;51.762;8.564;2023-03-05T01:26:36;6.27;;;3.20;;
15230;SDS011;32569;51.762;8.564;2023-03-05T01:29:04;9.97;;;4.07;;
15230;SDS011;32569;51.762;8.564;2023-03-05T01:31:31;9.60;;;3.40;;
15230;SDS011;32569;51.762;8.564;2023-03-05T01:33:57;7.63;;;3.03;;
15230;SDS011;32569;51.762;8.564;2023-03-05T01:36:24;11.20;;;3.90;;
15230;SDS011;32569;51.762;8.564;2023-03-05T01:38:51;4.50;;;3.43;;
15230;SDS011;32569;51.762;8.564;2023-03-05T01:41:18;7.10;;;3.73;;
15230;SDS011;32569;51.762;8.564;2023-03-05T01:43:46;10.57;;;4.40;;
15230;SDS011;32569;51.762;8.564;2023-03-05T01:49:02;8.50;;;3.80;;
15230;SDS011;32569;51.762;8.564;2023-03-05T01:51:34;7.13;;;3.57;;
15230;SDS011;32569;51.762;8.564;2023-03-05T01:54:05;7.57;;;3.47;;
15230;SDS011;32569;51.762;8.564;2023-03-05T01:56:33;7.77;;;3.00;;
15230;SDS011;32569;51.762;8.564;2023-03-05T01:59:00;7.37;;;3.77;;
15230;SDS011;32569;51.762;8.564;2023-03-05T02:01:29;8.77;;;3.40;;
15230;SDS011;32569;51.762;8.564;2023-03-05T02:04:02;8.00;;;3.07;;
15230;SDS011;32569;51.762;8.564;2023-03-05T02:06:31;5.70;;;3.13;;
15230;SDS011;32569;51.762;8.564;2023-03-05T02:08:59;5.33;;;3.50;;
15230;SDS011;32569;51.762;8.564;2023-03-05T02:11:26;8.53;;;3.67;;
15230;SDS011;32569;51.762;8.564;2023-03-05T02:13:52;12.00;;;3.33;;
15230;SDS011;32569;51.762;8.564;2023-03-05T02:16:19;7.53;;;3.37;;
15230;SDS011;32569;51.762;8.564;2023-03-05T02:18:50;5.00;;;3.17;;
15230;SDS011;32569;51.762;8.564;2023-03-05T02:21:26;7.63;;;3.67;;
15230;SDS011;32569;51.762;8.564;2023-03-05T02:23:54;8.07;;;3.27;;
15230;SDS011;32569;51.762;8.564;2023-03-05T02:26:20;7.00;;;3.37;;
15230;SDS011;32569;51.762;8.564;2023-03-05T02:28:48;7.23;;;4.07;;
15230;SDS011;32569;51.762;8.564;2023-03-05T02:31:19;8.77;;;3.30;;
15230;SDS011;32569;51.762;8.564;2023-03-05T02:33:49;6.37;;;3.30;;
15230;SDS011;32569;51.762;8.564;2023-03-05T02:36:20;9.67;;;3.67;;
15230;SDS011;32569;51.762;8.564;2023-03-05T02:38:48;8.47;;;3.37;;
15230;SDS011;32569;51.762;8.564;2023-03-05T02:41:16;9.73;;;3.57;;
15230;SDS011;32569;51.762;8.564;2023-03-05T02:43:43;6.83;;;3.20;;
15230;SDS011;32569;51.762;8.564;2023-03-05T02:46:10;7.17;;;3.80;;
15230;SDS011;32569;51.762;8.564;2023-03-05T02:48:37;7.67;;;3.73;;
15230;SDS011;32569;51.762;8.564;2023-03-05T02:51:03;9.57;;;3.60;;
15230;SDS011;32569;51.762;8.564;2023-03-05T02:53:32;7.97;;;3.30;;
15230;SDS011;32569;51.762;8.564;2023-03-05T02:56:00;4.83;;;3.37;;
15230;SDS011;32569;51.762;8.564;2023-03-05T02:58:26;5.07;;;3.30;;
15230;SDS011;32569;51.762;8.564;2023-03-05T03:00:53;8.10;;;3.37;;
15230;SDS011;32569;51.762;8.564;2023-03-05T03:03:22;7.47;;;3.07;;
15230;SDS011;32569;51.762;8.564;2023-03-05T03:05:49;7.27;;;3.60;;
15230;SDS011;32569;51.762;8.564;2023-03-05T03:08:16;7.87;;;4.20;;
15230;SDS011;32569;51.762;8.564;2023-03-05T03:10:42;7.33;;;3.63;;
15230;SDS011;32569;51.762;8.564;2023-03-05T03:13:10;9.00;;;3.80;;
15230;SDS011;32569;51.762;8.564;2023-03-05T03:15:37;6.93;;;3.40;;
15230;SDS011;32569;51.762;8.564;2023-03-05T03:18:04;8.67;;;3.97;;
15230;SDS011;32569;51.762;8.564;2023-03-05T03:20:31;5.00;;;3.70;;
15230;SDS011;32569;51.762;8.564;2023-03-05T03:22:58;10.97;;;3.87;;
15230;SDS011;32569;51.762;8.564;2023-03-05T03:25:25;10.33;;;3.93;;
15230;SDS011;32569;51.762;8.564;2023-03-05T03:27:52;8.20;;;3.77;;
15230;SDS011;32569;51.762;8.564;2023-03-05T03:30:20;5.43;;;3.33;;
15230;SDS011;32569;51.762;8.564;2023-03-05T03:32:47;9.23;;;3.33;;
15230;SDS011;32569;51.762;8.564;2023-03-05T03:35:13;5.77;;;3.30;;
15230;SDS011;32569;51.762;8.564;2023-03-05T03:37:40;9.13;;;3.50;;
15230;SDS011;32569;51.762;8.564;2023-03-05T03:40:07;8.83;;;4.13;;
15230;SDS011;32569;51.762;8.564;2023-03-05T03:42:34;7.47;;;3.37;;
15230;SDS011;32569;51.762;8.564;2023-03-05T03:45:01;10.87;;;3.87;;
15230;SDS011;32569;51.762;8.564;2023-03-05T03:47:30;6.83;;;3.47;;
15230;SDS011;32569;51.762;8.564;2023-03-05T03:49:56;8.70;;;4.03;;
15230;SDS011;32569;51.762;8.564;2023-03-05T03:52:23;8.37;;;4.13;;
15230;SDS011;32569;51.762;8.564;2023-03-05T03:54:50;7.60;;;3.60;;
15230;SDS011;32569;51.762;8.564;2023-03-05T03:57:17;6.07;;;3.87;;
15230;SDS011;32569;51.762;8.564;2023-03-05T03:59:44;9.93;;;4.13;;
15230;SDS011;32569;51.762;8.564;2023-03-05T04:02:10;7.10;;;3.67;;
15230;SDS011;32569;51.762;8.564;2023-03-05T04:04:39;6.60;;;3.87;;
15230;SDS011;32569;51.762;8.564;2023-03-05T04:07:08;9.17;;;3.80;;
15230;SDS011;32569;51.762;8.564;2023-03-05T04:09:35;6.87;;;4.47;;
15230;SDS011;32569;51.762;8.564;2023-03-05T04:12:08;6.97;;;3.93;;
15230;SDS011;32569;51.762;8.564;2023-03-05T04:14:38;6.70;;;4.03;;
15230;SDS011;32569;51.762;8.564;2023-03-05T04:17:04;8.70;;;4.50;;
15230;SDS011;32569;51.762;8.564;2023-03-05T04:19:34;6.17;;;3.87;;
15230;SDS011;32569;51.762;8.564;2023-03-05T04:22:02;9.23;;;4.20;;
15230;SDS011;32569;51.762;8.564;2023-03-05T04:24:29;8.17;;;4.17;;
15230;SDS011;32569;51.762;8.564;2023-03-05T04:26:58;8.73;;;4.00;;
15230;SDS011;32569;51.762;8.564;2023-03-05T04:29:25;5.37;;;4.47;;
15230;SDS011;32569;51.762;8.564;2023-03-05T04:31:51;7.67;;;4.20;;
15230;SDS011;32569;51.762;8.564;2023-03-05T04:34:21;5.80;;;3.90;;
15230;SDS011;32569;51.762;8.564;2023-03-05T04:36:48;7.50;;;4.33;;
15230;SDS011;32569;51.762;8.564;2023-03-05T04:39:16;6.40;;;4.20;;
15230;SDS011;32569;51.762;8.564;2023-03-05T04:41:44;5.27;;;3.90;;
15230;SDS011;32569;51.762;8.564;2023-03-05T04:44:11;7.27;;;4.23;;
15230;SDS011;32569;51.762;8.564;2023-03-05T04:46:38;4.93;;;3.90;;
15230;SDS011;32569;51.762;8.564;2023-03-05T04:49:04;8.93;;;4.43;;
15230;SDS011;32569;51.762;8.564;2023-03-05T04:51:31;7.07;;;3.97;;
15230;SDS011;32569;51.762;8.564;2023-03-05T04:53:58;7.10;;;4.23;;
15230;SDS011;32569;51.762;8.564;2023-03-05T04:56:28;6.20;;;4.57;;
15230;SDS011;32569;51.762;8.564;2023-03-05T04:58:55;5.37;;;3.90;;
15230;SDS011;32569;51.762;8.564;2023-03-05T05:01:25;10.23;;;4.60;;
15230;SDS011;32569;51.762;8.564;2023-03-05T05:03:51;6.83;;;3.63;;
15230;SDS011;32569;51.762;8.564;2023-03-05T05:06:18;6.40;;;4.13;;
15230;SDS011;32569;51.762;8.564;2023-03-05T05:08:44;5.60;;;3.50;;
15230;SDS011;32569;51.762;8.564;2023-03-05T05:11:12;5.73;;;3.67;;
15230;SDS011;32569;51.762;8.564;2023-03-05T05:13:40;6.50;;;3.40;;
15230;SDS011;32569;51.762;8.564;2023-03-05T05:16:07;4.50;;;3.27;;
15230;SDS011;32569;51.762;8.564;2023-03-05T05:18:34;5.87;;;3.53;;
15230;SDS011;32569;51.762;8.564;2023-03-05T05:21:06;8.63;;;3.30;;
15230;SDS011;32569;51.762;8.564;2023-03-05T05:23:34;4.23;;;2.73;;
15230;SDS011;32569;51.762;8.564;2023-03-05T05:26:02;5.23;;;3.13;;
15230;SDS011;32569;51.762;8.564;2023-03-05T05:28:30;8.10;;;3.83;;
15230;SDS011;32569;51.762;8.564;2023-03-05T05:30:58;7.73;;;3.50;;
15230;SDS011;32569;51.762;8.564;2023-03-05T05:33:25;5.60;;;2.93;;
15230;SDS011;32569;51.762;8.564;2023-03-05T05:35:52;6.67;;;3.23;;
15230;SDS011;32569;51.762;8.564;2023-03-05T05:38:19;5.47;;;3.30;;
15230;SDS011;32569;51.762;8.564;2023-03-05T05:40:45;5.13;;;3.10;;
15230;SDS011;32569;51.762;8.564;2023-03-05T05:43:12;7.07;;;3.20;;
15230;SDS011;32569;51.762;8.564;2023-03-05T05:45:39;7.23;;;4.00;;
15230;SDS011;32569;51.762;8.564;2023-03-05T05:48:07;4.97;;;2.77;;
15230;SDS011;32569;51.762;8.564;2023-03-05T05:50:33;4.97;;;2.90;;
15230;SDS011;32569;51.762;8.564;2023-03-05T05:53:00;6.50;;;3.80;;
15230;SDS011;32569;51.762;8.564;2023-03-05T05:55:27;6.70;;;3.83;;
15230;SDS011;32569;51.762;8.564;2023-03-05T05:57:56;6.27;;;4.10;;
15230;SDS011;32569;51.762;8.564;2023-03-05T06:00:29;10.23;;;5.07;;
15230;SDS011;32569;51.762;8.564;2023-03-05T06:02:55;7.87;;;5.80;;
15230;SDS011;32569;51.762;8.564;2023-03-05T06:05:23;15.00;;;6.73;;
15230;SDS011;32569;51.762;8.564;2023-03-05T06:07:50;9.70;;;6.47;;
15230;SDS011;32569;51.762;8.564;2023-03-05T06:10:17;11.77;;;6.50;;
15230;SDS011;32569;51.762;8.564;2023-03-05T06:12:43;12.13;;;7.27;;
15230;SDS011;32569;51.762;8.564;2023-03-05T06:15:10;13.87;;;7.50;;
15230;SDS011;32569;51.762;8.564;2023-03-05T06:17:37;17.60;;;8.10;;
15230;SDS011;32569;51.762;8.564;2023-03-05T06:20:07;14.87;;;7.27;;
15230;SDS011;32569;51.762;8.564;2023-03-05T06:22:36;14.60;;;6.37;;
15230;SDS011;32569;51.762;8.564;2023-03-05T06:25:02;12.20;;;6.63;;
15230;SDS011;32569;51.762;8.564;2023-03-05T06:27:30;6.17;;;4.33;;
15230;SDS011;32569;51.762;8.564;2023-03-05T06:29:56;6.43;;;4.50;;
15230;SDS011;32569;51.762;8.564;2023-03-05T06:32:23;6.60;;;4.57;;
15230;SDS011;32569;51.762;8.564;2023-03-05T06:34:49;6.73;;;4.60;;
15230;SDS011;32569;51.762;8.564;2023-03-05T06:37:19;5.40;;;3.90;;
15230;SDS011;32569;51.762;8.564;2023-03-05T06:39:50;6.10;;;3.93;;
15230;SDS011;32569;51.762;8.564;2023-03-05T06:42:17;5.83;;;3.67;;
15230;SDS011;32569;51.762;8.564;2023-03-05T06:44:44;10.63;;;4.33;;
15230;SDS011;32569;51.762;8.564;2023-03-05T06:47:11;9.53;;;4.70;;
15230;SDS011;32569;51.762;8.564;2023-03-05T06:49:38;6.93;;;5.17;;
15230;SDS011;32569;51.762;8.564;2023-03-05T06:52:05;7.90;;;5.30;;
15230;SDS011;32569;51.762;8.564;2023-03-05T06:54:34;8.03;;;5.47;;
15230;SDS011;32569;51.762;8.564;2023-03-05T06:57:02;11.43;;;6.77;;
15230;SDS011;32569;51.762;8.564;2023-03-05T06:59:29;9.30;;;5.63;;
15230;SDS011;32569;51.762;8.564;2023-03-05T07:01:55;8.53;;;6.17;;
15230;SDS011;32569;51.762;8.564;2023-03-05T07:04:22;8.77;;;6.03;;
15230;SDS011;32569;51.762;8.564;2023-03-05T07:06:49;9.37;;;5.67;;
15230;SDS011;32569;51.762;8.564;2023-03-05T07:09:17;9.27;;;6.00;;
15230;SDS011;32569;51.762;8.564;2023-03-05T07:11:44;10.50;;;5.43;;
15230;SDS011;32569;51.762;8.564;2023-03-05T07:14:12;10.40;;;5.23;;
15230;SDS011;32569;51.762;8.564;2023-03-05T07:16:39;8.37;;;5.57;;
15230;SDS011;32569;51.762;8.564;2023-03-05T07:19:06;11.90;;;5.47;;
15230;SDS011;32569;51.762;8.564;2023-03-05T07:21:34;6.57;;;4.17;;
15230;SDS011;32569;51.762;8.564;2023-03-05T07:24:02;8.90;;;4.60;;
15230;SDS011;32569;51.762;8.564;2023-03-05T07:26:32;9.87;;;4.23;;
15230;SDS011;32569;51.762;8.564;2023-03-05T07:28:59;7.80;;;4.03;;
15230;SDS011;32569;51.762;8.564;2023-03-05T07:31:27;7.70;;;4.17;;
15230;SDS011;32569;51.762;8.564;2023-03-05T07:33:56;4.33;;;3.70;;
15230;SDS011;32569;51.762;8.564;2023-03-05T07:36:23;8.37;;;3.60;;
15230;SDS011;32569;51.762;8.564;2023-03-05T07:38:51;8.10;;;4.20;;
15230;SDS011;32569;51.762;8.564;2023-03-05T07:41:18;5.47;;;3.50;;
15230;SDS011;32569;51.762;8.564;2023-03-05T07:43:47;4.83;;;3.87;;
15230;SDS011;32569;51.762;8.564;2023-03-05T07:46:15;6.83;;;3.90;;
15230;SDS011;32569;51.762;8.564;2023-03-05T07:48:45;8.67;;;4.00;;
15230;SDS011;32569;51.762;8.564;2023-03-05T07:51:18;5.70;;;4.00;;
15230;SDS011;32569;51.762;8.564;2023-03-05T07:53:45;8.37;;;4.53;;
15230;SDS011;32569;51.762;8.564;2023-03-05T07:56:13;9.27;;;4.03;;
15230;SDS011;32569;51.762;8.564;2023-03-05T07:58:45;7.40;;;4.27;;
15230;SDS011;32569;51.762;8.564;2023-03-05T08:01:12;8.93;;;4.73;;
15230;SDS011;32569;51.762;8.564;2023-03-05T08:03:39;7.90;;;4.50;;
15230;SDS011;32569;51.762;8.564;2023-03-05T08:06:07;7.33;;;4.20;;
15230;SDS011;32569;51.762;8.564;2023-03-05T08:08:35;7.93;;;4.03;;
15230;SDS011;32569;51.762;8.564;2023-03-05T08:11:03;5.77;;;4.10;;
15230;SDS011;32569;51.762;8.564;2023-03-05T08:13:30;6.10;;;3.80;;
15230;SDS011;32569;51.762;8.564;2023-03-05T08:15:57;6.53;;;3.70;;
15230;SDS011;32569;51.762;8.564;2023-03-05T08:18:23;6.93;;;4.40;;
15230;SDS011;32569;51.762;8.564;2023-03-05T08:20:50;6.30;;;4.00;;
15230;SDS011;32569;51.762;8.564;2023-03-05T08:23:18;6.10;;;4.37;;
15230;SDS011;32569;51.762;8.564;2023-03-05T08:25:44;7.80;;;4.50;;
15230;SDS011;32569;51.762;8.564;2023-03-05T08:28:11;6.97;;;4.03;;
15230;SDS011;32569;51.762;8.564;2023-03-05T08:30:40;6.73;;;3.97;;
15230;SDS011;32569;51.762;8.564;2023-03-05T08:33:07;4.67;;;4.07;;
15230;SDS011;32569;51.762;8.564;2023-03-05T08:35:33;6.43;;;3.53;;
15230;SDS011;32569;51.762;8.564;2023-03-05T08:38:00;8.00;;;4.10;;
15230;SDS011;32569;51.762;8.564;2023-03-05T08:40:28;5.67;;;4.03;;
15230;SDS011;32569;51.762;8.564;2023-03-05T08:42:55;5.97;;;3.53;;
15230;SDS011;32569;51.762;8.564;2023-03-05T08:45:22;5.27;;;3.33;;
15230;SDS011;32569;51.762;8.564;2023-03-05T08:47:49;3.70;;;3.13;;
15230;SDS011;32569;51.762;8.564;2023-03-05T08:50:20;5.70;;;3.50;;
15230;SDS011;32569;51.762;8.564;2023-03-05T08:52:47;3.53;;;2.77;;
15230;SDS011;32569;51.762;8.564;2023-03-05T08:55:14;5.93;;;3.17;;
15230;SDS011;32569;51.762;8.564;2023-03-05T08:57:42;3.73;;;2.80;;
15230;SDS011;32569;51.762;8.564;2023-03-05T09:00:09;3.23;;;2.90;;
15230;SDS011;32569;51.762;8.564;2023-03-05T09:02:37;5.27;;;3.27;;
15230;SDS011;32569;51.762;8.564;2023-03-05T09:05:04;3.47;;;2.80;;
15230;SDS011;32569;51.762;8.564;2023-03-05T09:07:32;4.23;;;3.10;;
15230;SDS011;32569;51.762;8.564;2023-03-05T09:09:58;2.80;;;2.60;;
15230;SDS011;32569;51.762;8.564;2023-03-05T09:12:25;3.67;;;2.70;;
15230;SDS011;32569;51.762;8.564;2023-03-05T09:14:54;4.03;;;3.50;;
15230;SDS011;32569;51.762;8.564;2023-03-05T09:17:21;4.43;;;3.43;;
15230;SDS011;32569;51.762;8.564;2023-03-05T09:19:48;6.13;;;3.90;;
15230;SDS011;32569;51.762;8.564;2023-03-05T09:22:15;5.07;;;3.57;;
15230;SDS011;32569;51.762;8.564;2023-03-05T09:24:41;6.73;;;4.47;;
15230;SDS011;32569;51.762;8.564;2023-03-05T09:27:08;5.27;;;4.27;;
15230;SDS011;32569;51.762;8.564;2023-03-05T09:29:35;5.23;;;3.93;;
15230;SDS011;32569;51.762;8.564;2023-03-05T09:32:03;3.97;;;3.57;;
15230;SDS011;32569;51.762;8.564;2023-03-05T09:34:30;4.20;;;3.57;;
15230;SDS011;32569;51.762;8.564;2023-03-05T09:36:58;5.93;;;4.03;;
15230;SDS011;32569;51.762;8.564;2023-03-05T09:39:25;4.77;;;3.80;;
15230;SDS011;32569;51.762;8.564;2023-03-05T09:44:55;5.37;;;4.20;;
15230;SDS011;32569;51.762;8.564;2023-03-05T09:47:41;5.20;;;4.33;;
15230;SDS011;32569;51.762;8.564;2023-03-05T09:50:18;6.70;;;4.33;;
15230;SDS011;32569;51.762;8.564;2023-03-05T09:52:58;5.60;;;4.43;;
15230;SDS011;32569;51.762;8.564;2023-03-05T09:55:31;5.53;;;4.03;;
15230;SDS011;32569;51.762;8.564;2023-03-05T09:58:03;5.93;;;4.37;;
15230;SDS011;32569;51.762;8.564;2023-03-05T10:00:33;3.87;;;3.47;;
15230;SDS011;32569;51.762;8.564;2023-03-05T10:03:05;3.90;;;3.50;;
15230;SDS011;32569;51.762;8.564;2023-03-05T10:08:31;4.93;;;3.90;;
15230;SDS011;32569;51.762;8.564;2023-03-05T10:11:07;4.80;;;3.70;;
15230;SDS011;32569;51.762;8.564;2023-03-05T10:13:47;4.10;;;3.40;;
15230;SDS011;32569;51.762;8.564;2023-03-05T10:16:23;2.87;;;2.67;;
15230;SDS011;32569;51.762;8.564;2023-03-05T10:19:15;3.13;;;2.70;;
15230;SDS011;32569;51.762;8.564;2023-03-05T10:22:00;6.90;;;2.57;;
15230;SDS011;32569;51.762;8.564;2023-03-05T10:24:40;3.93;;;2.30;;
15230;SDS011;32569;51.762;8.564;2023-03-05T10:27:17;3.97;;;2.80;;
15230;SDS011;32569;51.762;8.564;2023-03-05T10:29:52;3.93;;;2.60;;
15230;SDS011;32569;51.762;8.564;2023-03-05T10:32:34;4.50;;;2.77;;
15230;SDS011;32569;51.762;8.564;2023-03-05T10:35:13;2.30;;;2.10;;
15230;SDS011;32569;51.762;8.564;2023-03-05T10:38:06;3.70;;;2.60;;
15230;SDS011;32569;51.762;8.564;2023-03-05T10:40:47;3.13;;;2.90;;
15230;SDS011;32569;51.762;8.564;2023-03-05T10:43:19;3.00;;;2.57;;
15230;SDS011;32569;51.762;8.564;2023-03-05T10:45:52;2.70;;;2.50;;
15230;SDS011;32569;51.762;8.564;2023-03-05T10:48:24;2.80;;;2.60;;
15230;SDS011;32569;51.762;8.564;2023-03-05T10:50:56;5.27;;;3.00;;
15230;SDS011;32569;51.762;8.564;2023-03-05T10:53:25;4.57;;;2.77;;
15230;SDS011;32569;51.762;8.564;2023-03-05T10:55:59;4.73;;;3.37;;
15230;SDS011;32569;51.762;8.564;2023-03-05T10:58:27;3.00;;;2.80;;
15230;SDS011;32569;51.762;8.564;2023-03-05T11:00:58;5.00;;;3.33;;
15230;SDS011;32569;51.762;8.564;2023-03-05T11:03:41;5.37;;;3.40;;
15230;SDS011;32569;51.762;8.564;2023-03-05T11:06:14;3.43;;;3.13;;
15230;SDS011;32569;51.762;8.564;2023-03-05T11:08:47;4.20;;;3.20;;
15230;SDS011;32569;51.762;8.564;2023-03-05T11:11:14;3.57;;;3.27;;
15230;SDS011;32569;51.762;8.564;2023-03-05T11:13:43;3.70;;;2.60;;
15230;SDS011;32569;51.762;8.564;2023-03-05T11:16:18;2.53;;;2.33;;
15230;SDS011;32569;51.762;8.564;2023-03-05T11:18:46;5.87;;;2.50;;
15230;SDS011;32569;51.762;8.564;2023-03-05T11:21:19;4.20;;;2.72;;
15230;SDS011;32569;51.762;8.564;2023-03-05T11:24:02;3.33;;;3.03;;
15230;SDS011;32569;51.762;8.564;2023-03-05T11:26:30;4.50;;;3.70;;
15230;SDS011;32569;51.762;8.564;2023-03-05T11:28:57;3.93;;;3.20;;
15230;SDS011;32569;51.762;8.564;2023-03-05T11:31:26;3.13;;;2.50;;
15230;SDS011;32569;51.762;8.564;2023-03-05T11:33:55;2.40;;;2.27;;
15230;SDS011;32569;51.762;8.564;2023-03-05T11:36:26;2.50;;;2.30;;
15230;SDS011;32569;51.762;8.564;2023-03-05T11:38:56;2.60;;;2.40;;
15230;SDS011;32569;51.762;8.564;2023-03-05T11:41:29;3.87;;;2.57;;
15230;SDS011;32569;51.762;8.564;2023-03-05T11:44:00;2.97;;;2.53;;
15230;SDS011;32569;51.762;8.564;2023-03-05T11:46:33;3.07;;;2.40;;
15230;SDS011;32569;51.762;8.564;2023-03-05T11:49:05;2.63;;;2.40;;
15230;SDS011;32569;51.762;8.564;2023-03-05T11:51:39;3.90;;;2.73;;
15230;SDS011;32569;51.762;8.564;2023-03-05T11:54:11;3.90;;;3.13;;
15230;SDS011;32569;51.762;8.564;2023-03-05T11:56:45;2.80;;;2.60;;
15230;SDS011;32569;51.762;8.564;2023-03-05T11:59:13;3.43;;;2.50;;
15230;SDS011;32569;51.762;8.564;2023-03-05T12:01:44;2.90;;;2.20;;
15230;SDS011;32569;51.762;8.564;2023-03-05T12:04:13;2.47;;;2.00;;
15230;SDS011;32569;51.762;8.564;2023-03-05T12:06:43;3.53;;;2.23;;
15230;SDS011;32569;51.762;8.564;2023-03-05T12:09:12;3.23;;;2.13;;
15230;SDS011;32569;51.762;8.564;2023-03-05T12:11:46;2.70;;;2.00;;
15230;SDS011;32569;51.762;8.564;2023-03-05T12:14:17;1.60;;;1.50;;
15230;SDS011;32569;51.762;8.564;2023-03-05T12:16:53;4.80;;;1.87;;
15230;SDS011;32569;51.762;8.564;2023-03-05T12:19:37;3.07;;;1.80;;
15230;SDS011;32569;51.762;8.564;2023-03-05T12:22:18;1.80;;;1.70;;
15230;SDS011;32569;51.762;8.564;2023-03-05T12:24:47;3.33;;;2.40;;
15230;SDS011;32569;51.762;8.564;2023-03-05T12:27:15;4.17;;;2.17;;
15230;SDS011;32569;51.762;8.564;2023-03-05T12:29:56;2.20;;;1.90;;
15230;SDS011;32569;51.762;8.564;2023-03-05T12:35:33;2.17;;;1.83;;
15230;SDS011;32569;51.762;8.564;2023-03-05T12:44:19;3.20;;;2.20;;
15230;SDS011;32569;51.762;8.564;2023-03-05T12:49:47;2.57;;;1.53;;
15230;SDS011;32569;51.762;8.564;2023-03-05T12:52:22;3.20;;;1.50;;
15230;SDS011;32569;51.762;8.564;2023-03-05T12:55:03;1.90;;;1.80;;
15230;SDS011;32569;51.762;8.564;2023-03-05T12:57:44;1.67;;;1.57;;
15230;SDS011;32569;51.762;8.564;2023-03-05T13:00:13;2.53;;;1.80;;
15230;SDS011;32569;51.762;8.564;2023-03-05T13:02:45;2.80;;;1.90;;
15230;SDS011;32569;51.762;8.564;2023-03-05T13:05:20;2.30;;;2.10;;
15230;SDS011;32569;51.762;8.564;2023-03-05T13:07:50;4.70;;;1.90;;
15230;SDS011;32569;51.762;8.564;2023-03-05T13:10:22;1.93;;;1.80;;
15230;SDS011;32569;51.762;8.564;2023-03-05T13:12:52;2.70;;;1.83;;
15230;SDS011;32569;51.762;8.564;2023-03-05T13:15:21;2.27;;;2.00;;
15230;SDS011;32569;51.762;8.564;2023-03-05T13:17:53;2.33;;;2.13;;
15230;SDS011;32569;51.762;8.564;2023-03-05T13:20:24;2.30;;;2.00;;
15230;SDS011;32569;51.762;8.564;2023-03-05T13:23:08;1.97;;;1.80;;
15230;SDS011;32569;51.762;8.564;2023-03-05T13:25:41;2.80;;;2.00;;
15230;SDS011;32569;51.762;8.564;2023-03-05T13:28:10;5.17;;;2.30;;
15230;SDS011;32569;51.762;8.564;2023-03-05T13:30:38;2.57;;;2.30;;
15230;SDS011;32569;51.762;8.564;2023-03-05T13:33:12;2.40;;;2.20;;
15230;SDS011;32569;51.762;8.564;2023-03-05T13:35:43;2.40;;;2.20;;
15230;SDS011;32569;51.762;8.564;2023-03-05T13:38:14;3.77;;;2.67;;
15230;SDS011;32569;51.762;8.564;2023-03-05T13:41:01;3.00;;;2.70;;
15230;SDS011;32569;51.762;8.564;2023-03-05T13:43:41;2.60;;;2.40;;
15230;SDS011;32569;51.762;8.564;2023-03-05T13:46:08;3.60;;;2.77;;
15230;SDS011;32569;51.762;8.564;2023-03-05T13:48:35;3.73;;;2.50;;
15230;SDS011;32569;51.762;8.564;2023-03-05T13:51:02;2.93;;;2.43;;
15230;SDS011;32569;51.762;8.564;2023-03-05T13:53:31;6.40;;;2.50;;
15230;SDS011;32569;51.762;8.564;2023-03-05T13:55:59;3.37;;;2.47;;
15230;SDS011;32569;51.762;8.564;2023-03-05T13:58:45;2.37;;;2.17;;
15230;SDS011;32569;51.762;8.564;2023-03-05T14:01:19;3.83;;;2.83;;
15230;SDS011;32569;51.762;8.564;2023-03-05T14:03:51;3.93;;;2.77;;
15230;SDS011;32569;51.762;8.564;2023-03-05T14:06:20;2.83;;;2.30;;
15230;SDS011;32569;51.762;8.564;2023-03-05T14:08:48;5.97;;;2.43;;
15230;SDS011;32569;51.762;8.564;2023-03-05T14:11:18;3.23;;;1.90;;
15230;SDS011;32569;51.762;8.564;2023-03-05T14:13:45;2.97;;;2.60;;
15230;SDS011;32569;51.762;8.564;2023-03-05T14:16:14;2.83;;;2.30;;
15230;SDS011;32569;51.762;8.564;2023-03-05T14:18:52;5.83;;;3.37;;
15230;SDS011;32569;51.762;8.564;2023-03-05T14:21:22;2.23;;;2.03;;
15230;SDS011;32569;51.762;8.564;2023-03-05T14:23:49;3.33;;;2.37;;
15230;SDS011;32569;51.762;8.564;2023-03-05T14:26:27;3.23;;;2.30;;
15230;SDS011;32569;51.762;8.564;2023-03-05T14:28:57;2.37;;;2.17;;
15230;SDS011;32569;51.762;8.564;2023-03-05T14:31:26;2.97;;;2.13;;
15230;SDS011;32569;51.762;8.564;2023-03-05T14:33:58;5.67;;;3.33;;
15230;SDS011;32569;51.762;8.564;2023-03-05T14:36:26;3.40;;;2.43;;
15230;SDS011;32569;51.762;8.564;2023-03-05T14:38:54;2.70;;;2.00;;
15230;SDS011;32569;51.762;8.564;2023-03-05T14:41:26;4.83;;;2.80;;
15230;SDS011;32569;51.762;8.564;2023-03-05T14:44:00;2.57;;;2.37;;
15230;SDS011;32569;51.762;8.564;2023-03-05T14:46:27;3.57;;;2.90;;
15230;SDS011;32569;51.762;8.564;2023-03-05T14:48:54;3.43;;;2.37;;
15230;SDS011;32569;51.762;8.564;2023-03-05T14:51:20;2.27;;;2.00;;
15230;SDS011;32569;51.762;8.564;2023-03-05T14:53:48;5.97;;;2.83;;
15230;SDS011;32569;51.762;8.564;2023-03-05T14:56:16;2.40;;;1.90;;
15230;SDS011;32569;51.762;8.564;2023-03-05T14:58:48;2.80;;;2.30;;
15230;SDS011;32569;51.762;8.564;2023-03-05T15:01:15;2.83;;;2.10;;
15230;SDS011;32569;51.762;8.564;2023-03-05T15:03:42;2.20;;;2.00;;
15230;SDS011;32569;51.762;8.564;2023-03-05T15:06:12;2.53;;;1.93;;
15230;SDS011;32569;51.762;8.564;2023-03-05T15:08:44;2.23;;;2.03;;
15230;SDS011;32569;51.762;8.564;2023-03-05T15:11:11;4.57;;;2.23;;
15230;SDS011;32569;51.762;8.564;2023-03-05T15:13:38;3.67;;;2.07;;
15230;SDS011;32569;51.762;8.564;2023-03-05T15:16:06;1.90;;;1.80;;
15230;SDS011;32569;51.762;8.564;2023-03-05T15:18:33;2.83;;;2.00;;
15230;SDS011;32569;51.762;8.564;2023-03-05T15:21:00;4.20;;;2.17;;